MUC | München Airways

 METAR UND TAF INFORMATION

METAR FOR VTSP
ADDS - METARS form results

(0857 UTC 22 March 2019)
Data provider http://aviationweather.gov/metar/data/
 
METAR text: VTSP 220830Z 29014KT 260V340 9999 FEW020 32/22 Q1010 NOSIG
Conditions at: VTSP (PHUKET INTL AIRP, TH) observed 0830 UTC 22 March 2019
Temperature: 32.0°C (90°F)
Dewpoint: 22.0°C (72°F) [RH = 56%]
Pressure (altimeter): 29.82 inches Hg (1010.0 mb)
Winds: from the WNW (290 degrees) at 16 MPH (14 knots; 7.2 m/s)
Visibility: 6 or more miles (10+ km)
Ceiling: at least 12,000 feet AGL
Clouds: few clouds at 2000 feet AGL
Weather: no significant weather observed at this time

METAR text: VTSP 220800Z 29015KT 250V330 9999 FEW018TCU 33/23 Q1010 NOSIG
Conditions at: VTSP (PHUKET INTL AIRP, TH) observed 0800 UTC 22 March 2019
Temperature: 33.0°C (91°F)
Dewpoint: 23.0°C (73°F) [RH = 56%]
Pressure (altimeter): 29.82 inches Hg (1010.0 mb)
Winds: from the WNW (290 degrees) at 17 MPH (15 knots; 7.7 m/s)
Visibility: 6 or more miles (10+ km)
Ceiling: at least 12,000 feet AGL
Clouds: few clouds at 1800 feet AGL
Weather: no significant weather observed at this time

Forecast for: VTSP (PHUKET INTL AIRP, TH)
Text: TAF VTSP 220500Z 2206/2312 29012KT 9999 FEW020
Forecast period: 0600 to 2000 UTC 22 March 2019
Forecast type: FROM: standard forecast or significant change
Winds: from the WNW (290 degrees) at 14 MPH (12 knots; 6.2 m/s)
Visibility: 6 or more miles 10+ km)
Ceiling: at least 12,000 feet AGL
Clouds: few clouds at 2000 feet AGL
Weather: no significant weather forecast for this period
Text: BECMG 2220/2222 06003KT 8000
Forecast period: 2000 UTC 22 March 2019 to 0200 UTC 23 March 2019
Forecast type: BECOMING: Conditions expected to become as follows by 2200 UTC 22 March 2019
Winds: from the ENE (60 degrees) at 3 MPH (3 knots; 1.5 m/s)
Visibility: 5 miles (8 km)
Ceiling: at least 12,000 feet AGL
Clouds: few clouds at 2000 feet AGL
Weather: no significant weather forecast for this period
Text: BECMG 2302/2304 29010KT 9999
Forecast period: 0200 to 1200 UTC 23 March 2019
Forecast type: BECOMING: Conditions expected to become as follows by 0400 UTC 23 March 2019
Winds: from the WNW (290 degrees) at 12 MPH (10 knots; 5.1 m/s)
Visibility: 6 or more miles 10+ km)
Ceiling: at least 12,000 feet AGL
Clouds: few clouds at 2000 feet AGL
Weather: no significant weather forecast for this period

 FLUGHAFENKARTE

 RUNWAY INFORMATION
Runway 09 Runway length 9843 ft Runway width 148 ft
Runway elevation 19 ft Runway displaced threshold 0 ft Runway heading 85
Runway 27 Runway length 9843 ft Runway width 148 ft
Runway elevation 82 ft Runway displaced threshold 0 ft Runway heading 265

 AIRPORT FREQUENCIES
Type APP Name APP Frequency 124.7 MHZ
Type ATIS Name ATIS Frequency 128 MHZ
Type GND Name GND Frequency 121.9 MHZ
Type TWR Name TWR Frequency 118.1 MHZ

 AIRPORT NEAR NAVIGATION AIDS
Type NDB Name Phuket Frequency 360 KHZ
Type VOR-DME Name Phuket Frequency 116900 KHZ